sensor_id;sensor_type;location;lat;lon;timestamp;temperature;humidity
34279;DHT22;20538;51.528;9.942;2024-03-02T00:00:02;8.00;99.90
34279;DHT22;20538;51.528;9.942;2024-03-02T00:02:45;8.00;99.90
34279;DHT22;20538;51.528;9.942;2024-03-02T00:05:12;8.00;99.90
34279;DHT22;20538;51.528;9.942;2024-03-02T00:07:56;8.10;99.90
34279;DHT22;20538;51.528;9.942;2024-03-02T00:10:25;8.00;99.90
34279;DHT22;20538;51.528;9.942;2024-03-02T00:12:55;8.10;99.90
34279;DHT22;20538;51.528;9.942;2024-03-02T00:18:14;8.00;99.90
34279;DHT22;20538;51.528;9.942;2024-03-02T00:20:42;8.00;99.90
34279;DHT22;20538;51.528;9.942;2024-03-02T00:23:09;8.10;99.90
34279;DHT22;20538;51.528;9.942;2024-03-02T00:25:43;8.10;99.90
34279;DHT22;20538;51.528;9.942;2024-03-02T00:28:18;8.10;99.90
34279;DHT22;20538;51.528;9.942;2024-03-02T00:33:37;8.10;99.90
34279;DHT22;20538;51.528;9.942;2024-03-02T00:36:06;8.10;99.90
34279;DHT22;20538;51.528;9.942;2024-03-02T00:38:32;8.10;99.90
34279;DHT22;20538;51.528;9.942;2024-03-02T00:41:00;8.00;99.90
34279;DHT22;20538;51.528;9.942;2024-03-02T00:43:41;8.00;99.90
34279;DHT22;20538;51.528;9.942;2024-03-02T00:46:08;8.00;99.90
34279;DHT22;20538;51.528;9.942;2024-03-02T00:48:34;8.10;99.90
34279;DHT22;20538;51.528;9.942;2024-03-02T00:51:03;8.00;99.90
34279;DHT22;20538;51.528;9.942;2024-03-02T00:53:33;8.00;99.90
34279;DHT22;20538;51.528;9.942;2024-03-02T00:55:59;8.10;99.90
34279;DHT22;20538;51.528;9.942;2024-03-02T00:58:25;8.00;99.90
34279;DHT22;20538;51.528;9.942;2024-03-02T01:00:51;8.00;99.90
34279;DHT22;20538;51.528;9.942;2024-03-02T01:03:16;8.00;99.90
34279;DHT22;20538;51.528;9.942;2024-03-02T01:05:43;7.90;99.90
34279;DHT22;20538;51.528;9.942;2024-03-02T01:08:09;7.90;99.90
34279;DHT22;20538;51.528;9.942;2024-03-02T01:10:35;7.80;99.90
34279;DHT22;20538;51.528;9.942;2024-03-02T01:13:01;7.70;99.90
34279;DHT22;20538;51.528;9.942;2024-03-02T01:15:27;7.70;99.90
34279;DHT22;20538;51.528;9.942;2024-03-02T01:17:52;7.70;99.90
34279;DHT22;20538;51.528;9.942;2024-03-02T01:20:18;7.70;99.90
34279;DHT22;20538;51.528;9.942;2024-03-02T01:22:44;7.60;99.90
34279;DHT22;20538;51.528;9.942;2024-03-02T01:25:09;7.60;99.90
34279;DHT22;20538;51.528;9.942;2024-03-02T01:27:35;7.60;99.90
34279;DHT22;20538;51.528;9.942;2024-03-02T01:30:01;7.60;99.90
34279;DHT22;20538;51.528;9.942;2024-03-02T01:32:26;7.50;99.90
34279;DHT22;20538;51.528;9.942;2024-03-02T01:34:52;7.50;99.90
34279;DHT22;20538;51.528;9.942;2024-03-02T01:37:18;7.50;99.90
34279;DHT22;20538;51.528;9.942;2024-03-02T01:39:43;7.50;99.90
34279;DHT22;20538;51.528;9.942;2024-03-02T01:42:09;7.50;99.90
34279;DHT22;20538;51.528;9.942;2024-03-02T01:44:36;7.50;99.90
34279;DHT22;20538;51.528;9.942;2024-03-02T01:47:01;7.40;99.90
34279;DHT22;20538;51.528;9.942;2024-03-02T01:49:27;7.40;99.90
34279;DHT22;20538;51.528;9.942;2024-03-02T01:51:53;7.40;99.90
34279;DHT22;20538;51.528;9.942;2024-03-02T01:54:18;7.40;99.90
34279;DHT22;20538;51.528;9.942;2024-03-02T01:56:44;7.30;99.90
34279;DHT22;20538;51.528;9.942;2024-03-02T01:59:10;7.40;99.90
34279;DHT22;20538;51.528;9.942;2024-03-02T02:01:36;7.40;99.90
34279;DHT22;20538;51.528;9.942;2024-03-02T02:04:02;7.40;99.90
34279;DHT22;20538;51.528;9.942;2024-03-02T02:06:27;7.40;99.90
34279;DHT22;20538;51.528;9.942;2024-03-02T02:08:53;7.40;99.90
34279;DHT22;20538;51.528;9.942;2024-03-02T02:11:19;7.40;99.90
34279;DHT22;20538;51.528;9.942;2024-03-02T02:13:44;7.40;99.90
34279;DHT22;20538;51.528;9.942;2024-03-02T02:16:10;7.50;99.90
34279;DHT22;20538;51.528;9.942;2024-03-02T02:18:36;7.50;99.90
34279;DHT22;20538;51.528;9.942;2024-03-02T02:21:02;7.50;99.90
34279;DHT22;20538;51.528;9.942;2024-03-02T02:23:29;7.50;99.90
34279;DHT22;20538;51.528;9.942;2024-03-02T02:25:54;7.50;99.90
34279;DHT22;20538;51.528;9.942;2024-03-02T02:28:20;7.50;99.90
34279;DHT22;20538;51.528;9.942;2024-03-02T02:30:45;7.60;99.90
34279;DHT22;20538;51.528;9.942;2024-03-02T02:33:11;7.60;99.90
34279;DHT22;20538;51.528;9.942;2024-03-02T02:35:37;7.70;99.90
34279;DHT22;20538;51.528;9.942;2024-03-02T02:38:03;7.70;99.90
34279;DHT22;20538;51.528;9.942;2024-03-02T02:40:29;7.70;99.90
34279;DHT22;20538;51.528;9.942;2024-03-02T02:42:58;7.70;99.90
34279;DHT22;20538;51.528;9.942;2024-03-02T02:45:24;7.80;99.90
34279;DHT22;20538;51.528;9.942;2024-03-02T02:47:50;7.80;99.90
34279;DHT22;20538;51.528;9.942;2024-03-02T02:50:16;7.90;99.90
34279;DHT22;20538;51.528;9.942;2024-03-02T02:52:42;7.90;99.90
34279;DHT22;20538;51.528;9.942;2024-03-02T02:55:09;7.90;99.90
34279;DHT22;20538;51.528;9.942;2024-03-02T02:57:36;7.90;99.90
34279;DHT22;20538;51.528;9.942;2024-03-02T03:00:08;7.80;99.90
34279;DHT22;20538;51.528;9.942;2024-03-02T03:02:40;7.80;99.90
34279;DHT22;20538;51.528;9.942;2024-03-02T03:05:09;7.80;99.90
34279;DHT22;20538;51.528;9.942;2024-03-02T03:07:34;7.90;99.90
34279;DHT22;20538;51.528;9.942;2024-03-02T03:10:02;7.90;99.90
34279;DHT22;20538;51.528;9.942;2024-03-02T03:12:28;7.90;99.90
34279;DHT22;20538;51.528;9.942;2024-03-02T03:14:54;7.90;99.90
34279;DHT22;20538;51.528;9.942;2024-03-02T03:17:21;7.90;99.90
34279;DHT22;20538;51.528;9.942;2024-03-02T03:19:47;7.80;99.90
34279;DHT22;20538;51.528;9.942;2024-03-02T03:22:12;7.80;99.90
34279;DHT22;20538;51.528;9.942;2024-03-02T03:24:38;7.80;99.90
34279;DHT22;20538;51.528;9.942;2024-03-02T03:27:04;7.80;99.90
34279;DHT22;20538;51.528;9.942;2024-03-02T03:29:30;7.80;99.90
34279;DHT22;20538;51.528;9.942;2024-03-02T03:31:55;7.70;99.90
34279;DHT22;20538;51.528;9.942;2024-03-02T03:34:21;7.70;99.90
34279;DHT22;20538;51.528;9.942;2024-03-02T03:36:47;7.70;99.90
34279;DHT22;20538;51.528;9.942;2024-03-02T03:39:12;7.70;99.90
34279;DHT22;20538;51.528;9.942;2024-03-02T03:41:38;7.70;99.90
34279;DHT22;20538;51.528;9.942;2024-03-02T03:44:05;7.70;99.90
34279;DHT22;20538;51.528;9.942;2024-03-02T03:46:31;7.70;99.90
34279;DHT22;20538;51.528;9.942;2024-03-02T03:48:56;7.70;99.90
34279;DHT22;20538;51.528;9.942;2024-03-02T03:51:22;7.70;99.90
34279;DHT22;20538;51.528;9.942;2024-03-02T03:53:50;7.70;99.90
34279;DHT22;20538;51.528;9.942;2024-03-02T03:56:16;7.70;99.90
34279;DHT22;20538;51.528;9.942;2024-03-02T03:58:41;7.80;99.90
34279;DHT22;20538;51.528;9.942;2024-03-02T04:01:07;7.80;99.90
34279;DHT22;20538;51.528;9.942;2024-03-02T04:03:33;7.80;99.90
34279;DHT22;20538;51.528;9.942;2024-03-02T04:05:59;7.80;99.90
34279;DHT22;20538;51.528;9.942;2024-03-02T04:08:24;7.80;99.90
34279;DHT22;20538;51.528;9.942;2024-03-02T04:10:50;7.80;99.90
34279;DHT22;20538;51.528;9.942;2024-03-02T04:13:15;7.80;99.90
34279;DHT22;20538;51.528;9.942;2024-03-02T04:15:41;7.70;99.90
34279;DHT22;20538;51.528;9.942;2024-03-02T04:18:07;7.70;99.90
34279;DHT22;20538;51.528;9.942;2024-03-02T04:20:32;7.70;99.90
34279;DHT22;20538;51.528;9.942;2024-03-02T04:22:58;7.60;99.90
34279;DHT22;20538;51.528;9.942;2024-03-02T04:25:23;7.60;99.90
34279;DHT22;20538;51.528;9.942;2024-03-02T04:27:49;7.50;99.90
34279;DHT22;20538;51.528;9.942;2024-03-02T04:30:15;7.40;99.90
34279;DHT22;20538;51.528;9.942;2024-03-02T04:32:40;7.40;99.90
34279;DHT22;20538;51.528;9.942;2024-03-02T04:35:06;7.30;99.90
34279;DHT22;20538;51.528;9.942;2024-03-02T04:37:35;7.20;99.90
34279;DHT22;20538;51.528;9.942;2024-03-02T04:40:01;7.20;99.90
34279;DHT22;20538;51.528;9.942;2024-03-02T04:42:26;7.10;99.90
34279;DHT22;20538;51.528;9.942;2024-03-02T04:44:52;7.10;99.90
34279;DHT22;20538;51.528;9.942;2024-03-02T04:47:18;7.10;99.90
34279;DHT22;20538;51.528;9.942;2024-03-02T04:49:43;7.10;99.90
34279;DHT22;20538;51.528;9.942;2024-03-02T04:52:09;7.00;99.90
34279;DHT22;20538;51.528;9.942;2024-03-02T04:54:34;6.90;99.90
34279;DHT22;20538;51.528;9.942;2024-03-02T04:57:20;6.70;99.90
34279;DHT22;20538;51.528;9.942;2024-03-02T04:59:46;6.70;99.90
34279;DHT22;20538;51.528;9.942;2024-03-02T05:02:11;6.60;99.90
34279;DHT22;20538;51.528;9.942;2024-03-02T05:04:39;6.50;99.90
34279;DHT22;20538;51.528;9.942;2024-03-02T05:07:05;6.50;99.90
34279;DHT22;20538;51.528;9.942;2024-03-02T05:09:31;6.40;99.90
34279;DHT22;20538;51.528;9.942;2024-03-02T05:11:57;6.40;99.90
34279;DHT22;20538;51.528;9.942;2024-03-02T05:14:41;6.50;99.90
34279;DHT22;20538;51.528;9.942;2024-03-02T05:17:06;6.40;99.90
34279;DHT22;20538;51.528;9.942;2024-03-02T05:19:32;6.40;99.90
34279;DHT22;20538;51.528;9.942;2024-03-02T05:21:57;6.30;99.90
34279;DHT22;20538;51.528;9.942;2024-03-02T05:24:23;6.30;99.90
34279;DHT22;20538;51.528;9.942;2024-03-02T05:26:49;6.40;99.90
34279;DHT22;20538;51.528;9.942;2024-03-02T05:29:14;6.40;99.90
34279;DHT22;20538;51.528;9.942;2024-03-02T05:31:40;6.30;99.90
34279;DHT22;20538;51.528;9.942;2024-03-02T05:34:06;6.30;99.90
34279;DHT22;20538;51.528;9.942;2024-03-02T05:36:31;6.30;99.90
34279;DHT22;20538;51.528;9.942;2024-03-02T05:38:57;6.20;99.90
34279;DHT22;20538;51.528;9.942;2024-03-02T05:41:23;6.00;99.90
34279;DHT22;20538;51.528;9.942;2024-03-02T05:43:48;6.00;99.90
34279;DHT22;20538;51.528;9.942;2024-03-02T05:46:15;5.90;99.90
34279;DHT22;20538;51.528;9.942;2024-03-02T05:48:40;5.80;99.90
34279;DHT22;20538;51.528;9.942;2024-03-02T05:51:06;5.80;99.90
34279;DHT22;20538;51.528;9.942;2024-03-02T05:53:32;5.90;99.90
34279;DHT22;20538;51.528;9.942;2024-03-02T05:55:57;5.90;99.90
34279;DHT22;20538;51.528;9.942;2024-03-02T05:58:23;6.00;99.90
34279;DHT22;20538;51.528;9.942;2024-03-02T06:01:07;6.00;99.90
34279;DHT22;20538;51.528;9.942;2024-03-02T06:03:32;6.10;99.90
34279;DHT22;20538;51.528;9.942;2024-03-02T06:05:58;6.20;99.90
34279;DHT22;20538;51.528;9.942;2024-03-02T06:08:25;6.20;99.90
34279;DHT22;20538;51.528;9.942;2024-03-02T06:10:50;6.40;99.90
34279;DHT22;20538;51.528;9.942;2024-03-02T06:13:16;6.50;99.90
34279;DHT22;20538;51.528;9.942;2024-03-02T06:15:42;6.50;99.90
34279;DHT22;20538;51.528;9.942;2024-03-02T06:18:08;6.60;99.90
34279;DHT22;20538;51.528;9.942;2024-03-02T06:20:33;6.60;99.90
34279;DHT22;20538;51.528;9.942;2024-03-02T06:22:59;6.60;99.90
34279;DHT22;20538;51.528;9.942;2024-03-02T06:25:25;6.60;99.90
34279;DHT22;20538;51.528;9.942;2024-03-02T06:27:50;6.70;99.90
34279;DHT22;20538;51.528;9.942;2024-03-02T06:30:16;6.70;99.90
34279;DHT22;20538;51.528;9.942;2024-03-02T06:32:42;6.70;99.90
34279;DHT22;20538;51.528;9.942;2024-03-02T06:35:07;6.80;99.90
34279;DHT22;20538;51.528;9.942;2024-03-02T06:37:38;6.80;99.90
34279;DHT22;20538;51.528;9.942;2024-03-02T06:40:08;6.90;99.90
34279;DHT22;20538;51.528;9.942;2024-03-02T06:42:34;6.80;99.90
34279;DHT22;20538;51.528;9.942;2024-03-02T06:45:00;6.80;99.90
34279;DHT22;20538;51.528;9.942;2024-03-02T06:47:25;6.70;99.90
34279;DHT22;20538;51.528;9.942;2024-03-02T06:49:51;6.60;99.90
34279;DHT22;20538;51.528;9.942;2024-03-02T06:52:17;6.60;99.90
34279;DHT22;20538;51.528;9.942;2024-03-02T06:54:42;6.60;99.90
34279;DHT22;20538;51.528;9.942;2024-03-02T06:57:08;6.50;99.90
34279;DHT22;20538;51.528;9.942;2024-03-02T06:59:34;6.60;99.90
34279;DHT22;20538;51.528;9.942;2024-03-02T07:01:59;6.50;99.90
34279;DHT22;20538;51.528;9.942;2024-03-02T07:04:26;6.50;99.90
34279;DHT22;20538;51.528;9.942;2024-03-02T07:06:51;6.50;99.90
34279;DHT22;20538;51.528;9.942;2024-03-02T07:09:17;6.50;99.90
34279;DHT22;20538;51.528;9.942;2024-03-02T07:11:43;6.50;99.90
34279;DHT22;20538;51.528;9.942;2024-03-02T07:14:08;6.60;99.90
34279;DHT22;20538;51.528;9.942;2024-03-02T07:16:36;6.60;99.90
34279;DHT22;20538;51.528;9.942;2024-03-02T07:19:03;6.60;99.90
34279;DHT22;20538;51.528;9.942;2024-03-02T07:21:29;6.70;99.90
34279;DHT22;20538;51.528;9.942;2024-03-02T07:23:54;6.70;99.90
34279;DHT22;20538;51.528;9.942;2024-03-02T07:26:20;6.70;99.90
34279;DHT22;20538;51.528;9.942;2024-03-02T07:28:46;6.70;99.90
34279;DHT22;20538;51.528;9.942;2024-03-02T07:31:13;6.80;99.90
34279;DHT22;20538;51.528;9.942;2024-03-02T07:33:39;6.80;99.90
34279;DHT22;20538;51.528;9.942;2024-03-02T07:36:05;6.80;99.90
34279;DHT22;20538;51.528;9.942;2024-03-02T07:38:32;6.80;99.90
34279;DHT22;20538;51.528;9.942;2024-03-02T07:40:59;6.90;99.90
34279;DHT22;20538;51.528;9.942;2024-03-02T07:43:25;6.90;99.90
34279;DHT22;20538;51.528;9.942;2024-03-02T07:45:51;7.00;99.90
34279;DHT22;20538;51.528;9.942;2024-03-02T07:48:17;7.00;99.90
34279;DHT22;20538;51.528;9.942;2024-03-02T07:50:43;7.10;99.90
34279;DHT22;20538;51.528;9.942;2024-03-02T07:53:09;7.20;99.90
34279;DHT22;20538;51.528;9.942;2024-03-02T07:55:35;7.20;99.90
34279;DHT22;20538;51.528;9.942;2024-03-02T07:58:01;7.30;99.90
34279;DHT22;20538;51.528;9.942;2024-03-02T08:00:26;7.30;99.90
34279;DHT22;20538;51.528;9.942;2024-03-02T08:02:53;7.40;99.90
34279;DHT22;20538;51.528;9.942;2024-03-02T08:05:19;7.50;99.90
34279;DHT22;20538;51.528;9.942;2024-03-02T08:07:45;7.60;99.90
34279;DHT22;20538;51.528;9.942;2024-03-02T08:10:12;7.70;99.90
34279;DHT22;20538;51.528;9.942;2024-03-02T08:12:38;7.80;99.90
34279;DHT22;20538;51.528;9.942;2024-03-02T08:15:04;7.90;99.90
34279;DHT22;20538;51.528;9.942;2024-03-02T08:17:30;8.00;99.90
34279;DHT22;20538;51.528;9.942;2024-03-02T08:19:56;8.10;99.90
34279;DHT22;20538;51.528;9.942;2024-03-02T08:22:22;8.20;99.90
34279;DHT22;20538;51.528;9.942;2024-03-02T08:24:48;8.30;99.90
34279;DHT22;20538;51.528;9.942;2024-03-02T08:27:14;8.50;99.90
34279;DHT22;20538;51.528;9.942;2024-03-02T08:29:40;8.60;99.90
34279;DHT22;20538;51.528;9.942;2024-03-02T08:32:06;8.70;99.90
34279;DHT22;20538;51.528;9.942;2024-03-02T08:34:32;8.90;99.90
34279;DHT22;20538;51.528;9.942;2024-03-02T08:36:59;9.00;99.90
34279;DHT22;20538;51.528;9.942;2024-03-02T08:39:25;9.00;99.90
34279;DHT22;20538;51.528;9.942;2024-03-02T08:41:50;9.10;99.90
34279;DHT22;20538;51.528;9.942;2024-03-02T08:44:17;9.20;99.90
34279;DHT22;20538;51.528;9.942;2024-03-02T08:46:42;9.30;99.90
34279;DHT22;20538;51.528;9.942;2024-03-02T08:49:09;9.40;99.90
34279;DHT22;20538;51.528;9.942;2024-03-02T08:51:35;9.50;99.90
34279;DHT22;20538;51.528;9.942;2024-03-02T08:54:00;9.60;99.90
34279;DHT22;20538;51.528;9.942;2024-03-02T08:56:26;9.60;99.90
34279;DHT22;20538;51.528;9.942;2024-03-02T08:58:52;9.80;99.90
34279;DHT22;20538;51.528;9.942;2024-03-02T09:01:18;9.80;99.90
34279;DHT22;20538;51.528;9.942;2024-03-02T09:03:45;9.90;99.90
34279;DHT22;20538;51.528;9.942;2024-03-02T09:06:11;10.00;99.90
34279;DHT22;20538;51.528;9.942;2024-03-02T09:08:37;10.10;99.90
34279;DHT22;20538;51.528;9.942;2024-03-02T09:11:04;10.10;99.90
34279;DHT22;20538;51.528;9.942;2024-03-02T09:13:31;10.20;99.90
34279;DHT22;20538;51.528;9.942;2024-03-02T09:15:57;10.20;99.90
34279;DHT22;20538;51.528;9.942;2024-03-02T09:18:22;10.30;99.90
34279;DHT22;20538;51.528;9.942;2024-03-02T09:20:48;10.40;99.90
34279;DHT22;20538;51.528;9.942;2024-03-02T09:23:14;10.40;99.90
34279;DHT22;20538;51.528;9.942;2024-03-02T09:25:40;10.40;99.90
34279;DHT22;20538;51.528;9.942;2024-03-02T09:28:05;10.40;99.90
34279;DHT22;20538;51.528;9.942;2024-03-02T09:30:32;10.50;99.90
34279;DHT22;20538;51.528;9.942;2024-03-02T09:32:58;10.60;99.90
34279;DHT22;20538;51.528;9.942;2024-03-02T09:35:24;10.60;99.90
34279;DHT22;20538;51.528;9.942;2024-03-02T09:37:50;10.60;99.90
34279;DHT22;20538;51.528;9.942;2024-03-02T09:40:16;10.70;99.90
34279;DHT22;20538;51.528;9.942;2024-03-02T09:42:42;10.70;99.90
34279;DHT22;20538;51.528;9.942;2024-03-02T09:45:09;10.70;99.90
34279;DHT22;20538;51.528;9.942;2024-03-02T09:47:35;10.70;99.90
34279;DHT22;20538;51.528;9.942;2024-03-02T09:50:01;10.70;99.90
34279;DHT22;20538;51.528;9.942;2024-03-02T09:52:26;10.70;99.90
34279;DHT22;20538;51.528;9.942;2024-03-02T09:54:52;10.80;99.90
34279;DHT22;20538;51.528;9.942;2024-03-02T09:57:18;10.90;99.90
34279;DHT22;20538;51.528;9.942;2024-03-02T09:59:43;11.10;99.90
34279;DHT22;20538;51.528;9.942;2024-03-02T10:02:11;11.10;99.90
34279;DHT22;20538;51.528;9.942;2024-03-02T10:04:37;11.20;99.90
34279;DHT22;20538;51.528;9.942;2024-03-02T10:07:15;11.40;99.90
34279;DHT22;20538;51.528;9.942;2024-03-02T10:09:42;11.40;99.90
34279;DHT22;20538;51.528;9.942;2024-03-02T10:12:13;11.60;99.90
34279;DHT22;20538;51.528;9.942;2024-03-02T10:14:41;11.50;99.90
34279;DHT22;20538;51.528;9.942;2024-03-02T10:17:09;11.40;99.90
34279;DHT22;20538;51.528;9.942;2024-03-02T10:19:36;11.60;99.90
34279;DHT22;20538;51.528;9.942;2024-03-02T10:22:04;11.70;99.90
34279;DHT22;20538;51.528;9.942;2024-03-02T10:27:10;11.90;99.90
34279;DHT22;20538;51.528;9.942;2024-03-02T10:29:40;12.00;99.90
34279;DHT22;20538;51.528;9.942;2024-03-02T10:32:12;12.10;99.90
34279;DHT22;20538;51.528;9.942;2024-03-02T10:34:42;12.20;99.90
34279;DHT22;20538;51.528;9.942;2024-03-02T10:37:08;12.30;99.90
34279;DHT22;20538;51.528;9.942;2024-03-02T10:39:35;12.40;99.90
34279;DHT22;20538;51.528;9.942;2024-03-02T10:42:02;12.30;99.90
34279;DHT22;20538;51.528;9.942;2024-03-02T10:44:31;12.20;99.90
34279;DHT22;20538;51.528;9.942;2024-03-02T10:47:04;12.20;99.90
34279;DHT22;20538;51.528;9.942;2024-03-02T10:49:30;12.10;99.90
34279;DHT22;20538;51.528;9.942;2024-03-02T10:52:00;12.10;99.90
34279;DHT22;20538;51.528;9.942;2024-03-02T10:54:26;12.20;99.90
34279;DHT22;20538;51.528;9.942;2024-03-02T10:56:56;12.30;99.90
34279;DHT22;20538;51.528;9.942;2024-03-02T10:59:35;12.30;99.90
34279;DHT22;20538;51.528;9.942;2024-03-02T11:02:03;12.40;99.90
34279;DHT22;20538;51.528;9.942;2024-03-02T11:04:32;12.50;99.90
34279;DHT22;20538;51.528;9.942;2024-03-02T11:07:06;12.40;99.90
34279;DHT22;20538;51.528;9.942;2024-03-02T11:09:49;12.40;99.90
34279;DHT22;20538;51.528;9.942;2024-03-02T11:12:22;12.50;99.90
34279;DHT22;20538;51.528;9.942;2024-03-02T11:14:48;12.60;99.90
34279;DHT22;20538;51.528;9.942;2024-03-02T11:17:17;12.50;99.90
34279;DHT22;20538;51.528;9.942;2024-03-02T11:19:44;12.80;99.90
34279;DHT22;20538;51.528;9.942;2024-03-02T11:22:11;12.90;99.90
34279;DHT22;20538;51.528;9.942;2024-03-02T11:24:37;12.80;99.90
34279;DHT22;20538;51.528;9.942;2024-03-02T11:27:04;12.80;99.90
34279;DHT22;20538;51.528;9.942;2024-03-02T11:32:03;13.00;99.90
34279;DHT22;20538;51.528;9.942;2024-03-02T11:34:34;13.10;99.90
34279;DHT22;20538;51.528;9.942;2024-03-02T11:37:04;13.00;99.90
34279;DHT22;20538;51.528;9.942;2024-03-02T11:39:30;13.20;99.90
34279;DHT22;20538;51.528;9.942;2024-03-02T11:41:57;13.10;99.90
34279;DHT22;20538;51.528;9.942;2024-03-02T11:44:29;13.10;99.90
34279;DHT22;20538;51.528;9.942;2024-03-02T11:47:02;13.00;99.90
34279;DHT22;20538;51.528;9.942;2024-03-02T11:52:07;13.10;99.90
34279;DHT22;20538;51.528;9.942;2024-03-02T11:54:33;13.20;99.90
34279;DHT22;20538;51.528;9.942;2024-03-02T11:57:05;13.20;99.90
34279;DHT22;20538;51.528;9.942;2024-03-02T11:59:31;13.20;99.90
34279;DHT22;20538;51.528;9.942;2024-03-02T12:01:58;13.30;99.90
34279;DHT22;20538;51.528;9.942;2024-03-02T12:04:24;13.30;99.90
34279;DHT22;20538;51.528;9.942;2024-03-02T12:06:57;13.30;99.90
34279;DHT22;20538;51.528;9.942;2024-03-02T12:09:26;13.20;99.90
34279;DHT22;20538;51.528;9.942;2024-03-02T12:12:05;13.20;99.90
34279;DHT22;20538;51.528;9.942;2024-03-02T12:14:32;13.20;99.90
34279;DHT22;20538;51.528;9.942;2024-03-02T12:16:58;13.40;99.90
34279;DHT22;20538;51.528;9.942;2024-03-02T12:19:27;13.70;99.90
34279;DHT22;20538;51.528;9.942;2024-03-02T12:21:57;13.70;99.90
34279;DHT22;20538;51.528;9.942;2024-03-02T12:24:23;14.00;99.90
34279;DHT22;20538;51.528;9.942;2024-03-02T12:26:51;14.10;99.90
34279;DHT22;20538;51.528;9.942;2024-03-02T12:29:19;14.10;99.90
34279;DHT22;20538;51.528;9.942;2024-03-02T12:31:48;14.10;99.90
34279;DHT22;20538;51.528;9.942;2024-03-02T12:34:15;14.00;99.90
34279;DHT22;20538;51.528;9.942;2024-03-02T12:36:42;14.00;99.90
34279;DHT22;20538;51.528;9.942;2024-03-02T12:39:08;13.70;99.90
34279;DHT22;20538;51.528;9.942;2024-03-02T12:41:39;13.70;99.90
34279;DHT22;20538;51.528;9.942;2024-03-02T12:44:05;13.70;99.90
34279;DHT22;20538;51.528;9.942;2024-03-02T12:46:32;13.70;99.90
34279;DHT22;20538;51.528;9.942;2024-03-02T12:49:08;13.90;99.90
34279;DHT22;20538;51.528;9.942;2024-03-02T12:51:35;14.00;99.90
34279;DHT22;20538;51.528;9.942;2024-03-02T12:54:01;14.00;99.90
34279;DHT22;20538;51.528;9.942;2024-03-02T12:56:29;14.00;99.90
34279;DHT22;20538;51.528;9.942;2024-03-02T12:58:55;14.10;99.90
34279;DHT22;20538;51.528;9.942;2024-03-02T13:01:21;14.00;99.90
34279;DHT22;20538;51.528;9.942;2024-03-02T13:03:50;14.00;99.90
34279;DHT22;20538;51.528;9.942;2024-03-02T13:06:17;14.00;99.90
34279;DHT22;20538;51.528;9.942;2024-03-02T13:08:43;14.00;99.90
34279;DHT22;20538;51.528;9.942;2024-03-02T13:11:10;13.90;99.90
34279;DHT22;20538;51.528;9.942;2024-03-02T13:13:35;13.90;99.90
34279;DHT22;20538;51.528;9.942;2024-03-02T13:16:01;14.00;99.90
34279;DHT22;20538;51.528;9.942;2024-03-02T13:18:31;14.10;99.90
34279;DHT22;20538;51.528;9.942;2024-03-02T13:20:56;14.10;99.90
34279;DHT22;20538;51.528;9.942;2024-03-02T13:23:22;14.10;99.90
34279;DHT22;20538;51.528;9.942;2024-03-02T13:25:48;14.10;99.90
34279;DHT22;20538;51.528;9.942;2024-03-02T13:28:13;14.30;99.90
34279;DHT22;20538;51.528;9.942;2024-03-02T13:30:39;14.30;99.90
34279;DHT22;20538;51.528;9.942;2024-03-02T13:33:05;14.40;99.90
34279;DHT22;20538;51.528;9.942;2024-03-02T13:35:31;14.30;99.90
34279;DHT22;20538;51.528;9.942;2024-03-02T13:37:56;14.30;99.90
34279;DHT22;20538;51.528;9.942;2024-03-02T13:40:22;14.20;99.90
34279;DHT22;20538;51.528;9.942;2024-03-02T13:42:49;14.20;99.90
34279;DHT22;20538;51.528;9.942;2024-03-02T13:45:16;14.20;99.90
34279;DHT22;20538;51.528;9.942;2024-03-02T13:47:43;14.30;99.90
34279;DHT22;20538;51.528;9.942;2024-03-02T13:50:09;14.20;99.90
34279;DHT22;20538;51.528;9.942;2024-03-02T13:52:35;14.20;99.90
34279;DHT22;20538;51.528;9.942;2024-03-02T13:55:00;14.40;99.90
34279;DHT22;20538;51.528;9.942;2024-03-02T13:57:26;14.20;99.90
34279;DHT22;20538;51.528;9.942;2024-03-02T13:59:51;14.20;99.90
34279;DHT22;20538;51.528;9.942;2024-03-02T14:02:17;14.10;99.90
34279;DHT22;20538;51.528;9.942;2024-03-02T14:04:43;14.10;99.90
34279;DHT22;20538;51.528;9.942;2024-03-02T14:07:10;14.10;99.90
34279;DHT22;20538;51.528;9.942;2024-03-02T14:09:38;14.00;99.90
34279;DHT22;20538;51.528;9.942;2024-03-02T14:12:05;13.90;99.90
34279;DHT22;20538;51.528;9.942;2024-03-02T14:14:34;14.00;99.90
34279;DHT22;20538;51.528;9.942;2024-03-02T14:17:00;13.90;99.90
34279;DHT22;20538;51.528;9.942;2024-03-02T14:19:29;13.80;99.90
34279;DHT22;20538;51.528;9.942;2024-03-02T14:21:54;13.80;99.90
34279;DHT22;20538;51.528;9.942;2024-03-02T14:24:21;13.70;99.90
34279;DHT22;20538;51.528;9.942;2024-03-02T14:26:53;13.70;99.90
34279;DHT22;20538;51.528;9.942;2024-03-02T14:29:19;13.60;99.90
34279;DHT22;20538;51.528;9.942;2024-03-02T14:31:45;13.60;99.90
34279;DHT22;20538;51.528;9.942;2024-03-02T14:34:14;13.60;99.90
34279;DHT22;20538;51.528;9.942;2024-03-02T14:36:40;13.60;99.90
34279;DHT22;20538;51.528;9.942;2024-03-02T14:39:06;13.60;99.90
34279;DHT22;20538;51.528;9.942;2024-03-02T14:41:36;13.60;99.90
34279;DHT22;20538;51.528;9.942;2024-03-02T14:44:01;13.60;99.90
34279;DHT22;20538;51.528;9.942;2024-03-02T14:46:28;13.70;99.90
34279;DHT22;20538;51.528;9.942;2024-03-02T14:48:53;13.70;99.90
34279;DHT22;20538;51.528;9.942;2024-03-02T14:51:19;13.70;99.90
34279;DHT22;20538;51.528;9.942;2024-03-02T14:53:45;13.70;99.90
34279;DHT22;20538;51.528;9.942;2024-03-02T14:56:10;13.70;99.90
34279;DHT22;20538;51.528;9.942;2024-03-02T14:58:38;13.70;99.90
34279;DHT22;20538;51.528;9.942;2024-03-02T15:01:04;13.70;99.90
34279;DHT22;20538;51.528;9.942;2024-03-02T15:03:34;13.70;99.90
34279;DHT22;20538;51.528;9.942;2024-03-02T15:06:01;13.70;99.90
34279;DHT22;20538;51.528;9.942;2024-03-02T15:08:27;13.70;99.90
34279;DHT22;20538;51.528;9.942;2024-03-02T15:10:52;13.80;99.90
34279;DHT22;20538;51.528;9.942;2024-03-02T15:13:21;13.80;99.90
34279;DHT22;20538;51.528;9.942;2024-03-02T15:15:47;13.80;99.90
34279;DHT22;20538;51.528;9.942;2024-03-02T15:18:12;13.80;99.90
34279;DHT22;20538;51.528;9.942;2024-03-02T15:20:38;13.80;99.90
34279;DHT22;20538;51.528;9.942;2024-03-02T15:23:04;13.80;99.90
34279;DHT22;20538;51.528;9.942;2024-03-02T15:25:29;13.70;99.90
34279;DHT22;20538;51.528;9.942;2024-03-02T15:27:56;13.70;99.90
34279;DHT22;20538;51.528;9.942;2024-03-02T15:30:21;13.60;99.90
34279;DHT22;20538;51.528;9.942;2024-03-02T15:32:47;13.60;99.90
34279;DHT22;20538;51.528;9.942;2024-03-02T15:35:13;13.50;99.90
34279;DHT22;20538;51.528;9.942;2024-03-02T15:37:38;13.50;99.90
34279;DHT22;20538;51.528;9.942;2024-03-02T15:40:04;13.50;99.90
34279;DHT22;20538;51.528;9.942;2024-03-02T15:42:34;13.40;99.90
34279;DHT22;20538;51.528;9.942;2024-03-02T15:45:00;13.40;99.90
34279;DHT22;20538;51.528;9.942;2024-03-02T15:47:25;13.30;99.90
34279;DHT22;20538;51.528;9.942;2024-03-02T15:49:51;13.30;99.90